sensor_id;sensor_type;location;lat;lon;timestamp;P1;durP1;ratioP1;P2;durP2;ratioP2
75626;SDS011;67372;49.404;11.034;2023-09-12T00:00:23;19.40;;;11.88;;
75626;SDS011;67372;49.404;11.034;2023-09-12T00:02:50;17.20;;;10.90;;
75626;SDS011;67372;49.404;11.034;2023-09-12T00:05:16;17.60;;;11.35;;
75626;SDS011;67372;49.404;11.034;2023-09-12T00:07:43;14.90;;;10.90;;
75626;SDS011;67372;49.404;11.034;2023-09-12T00:10:09;16.40;;;11.57;;
75626;SDS011;67372;49.404;11.034;2023-09-12T00:12:35;17.85;;;11.00;;
75626;SDS011;67372;49.404;11.034;2023-09-12T00:15:02;15.80;;;11.02;;
75626;SDS011;67372;49.404;11.034;2023-09-12T00:17:29;17.20;;;11.73;;
75626;SDS011;67372;49.404;11.034;2023-09-12T00:19:55;19.88;;;11.07;;
75626;SDS011;67372;49.404;11.034;2023-09-12T00:22:21;17.70;;;11.27;;
75626;SDS011;67372;49.404;11.034;2023-09-12T00:24:48;17.73;;;11.02;;
75626;SDS011;67372;49.404;11.034;2023-09-12T00:27:14;18.35;;;11.70;;
75626;SDS011;67372;49.404;11.034;2023-09-12T00:29:40;17.67;;;11.07;;
75626;SDS011;67372;49.404;11.034;2023-09-12T00:32:07;18.48;;;11.52;;
75626;SDS011;67372;49.404;11.034;2023-09-12T00:34:33;18.30;;;11.07;;
75626;SDS011;67372;49.404;11.034;2023-09-12T00:36:59;18.35;;;11.55;;
75626;SDS011;67372;49.404;11.034;2023-09-12T00:39:26;18.92;;;12.05;;
75626;SDS011;67372;49.404;11.034;2023-09-12T00:41:52;19.00;;;11.15;;
75626;SDS011;67372;49.404;11.034;2023-09-12T00:44:19;18.40;;;11.07;;
75626;SDS011;67372;49.404;11.034;2023-09-12T00:46:45;18.67;;;11.00;;
75626;SDS011;67372;49.404;11.034;2023-09-12T00:49:14;17.63;;;10.93;;
75626;SDS011;67372;49.404;11.034;2023-09-12T00:51:43;19.20;;;11.18;;
75626;SDS011;67372;49.404;11.034;2023-09-12T00:54:11;17.23;;;10.48;;
75626;SDS011;67372;49.404;11.034;2023-09-12T00:56:38;18.95;;;11.35;;
75626;SDS011;67372;49.404;11.034;2023-09-12T00:59:04;20.65;;;11.80;;
75626;SDS011;67372;49.404;11.034;2023-09-12T01:03:58;17.60;;;11.07;;
75626;SDS011;67372;49.404;11.034;2023-09-12T01:06:25;20.02;;;11.27;;
75626;SDS011;67372;49.404;11.034;2023-09-12T01:08:55;17.17;;;11.00;;
75626;SDS011;67372;49.404;11.034;2023-09-12T01:11:21;19.73;;;11.43;;
75626;SDS011;67372;49.404;11.034;2023-09-12T01:13:48;21.17;;;11.20;;
75626;SDS011;67372;49.404;11.034;2023-09-12T01:16:15;17.27;;;10.25;;
75626;SDS011;67372;49.404;11.034;2023-09-12T01:18:41;17.85;;;10.73;;
75626;SDS011;67372;49.404;11.034;2023-09-12T01:21:15;17.50;;;11.45;;
75626;SDS011;67372;49.404;11.034;2023-09-12T01:24:07;17.27;;;10.65;;
75626;SDS011;67372;49.404;11.034;2023-09-12T01:29:49;17.08;;;11.10;;
75626;SDS011;67372;49.404;11.034;2023-09-12T01:32:18;15.23;;;10.60;;
75626;SDS011;67372;49.404;11.034;2023-09-12T01:34:46;17.92;;;11.00;;
75626;SDS011;67372;49.404;11.034;2023-09-12T01:37:12;16.35;;;10.48;;
75626;SDS011;67372;49.404;11.034;2023-09-12T01:39:39;18.38;;;11.43;;
75626;SDS011;67372;49.404;11.034;2023-09-12T01:42:05;17.83;;;10.25;;
75626;SDS011;67372;49.404;11.034;2023-09-12T01:44:34;19.15;;;11.20;;
75626;SDS011;67372;49.404;11.034;2023-09-12T01:47:03;18.50;;;11.68;;
75626;SDS011;67372;49.404;11.034;2023-09-12T01:49:31;18.65;;;11.15;;
75626;SDS011;67372;49.404;11.034;2023-09-12T01:51:59;21.15;;;11.30;;
75626;SDS011;67372;49.404;11.034;2023-09-12T01:54:26;17.63;;;11.38;;
75626;SDS011;67372;49.404;11.034;2023-09-12T01:59:23;19.65;;;10.25;;
75626;SDS011;67372;49.404;11.034;2023-09-12T02:01:50;17.25;;;10.43;;
75626;SDS011;67372;49.404;11.034;2023-09-12T02:04:17;18.58;;;10.75;;
75626;SDS011;67372;49.404;11.034;2023-09-12T02:06:43;18.33;;;10.82;;
75626;SDS011;67372;49.404;11.034;2023-09-12T02:09:09;16.33;;;10.60;;
75626;SDS011;67372;49.404;11.034;2023-09-12T02:11:36;17.30;;;10.95;;
75626;SDS011;67372;49.404;11.034;2023-09-12T02:14:02;17.88;;;10.52;;
75626;SDS011;67372;49.404;11.034;2023-09-12T02:16:29;16.05;;;10.50;;
75626;SDS011;67372;49.404;11.034;2023-09-12T02:18:57;15.77;;;10.23;;
75626;SDS011;67372;49.404;11.034;2023-09-12T02:21:24;16.30;;;10.52;;
75626;SDS011;67372;49.404;11.034;2023-09-12T02:23:50;17.13;;;11.32;;
75626;SDS011;67372;49.404;11.034;2023-09-12T02:26:16;16.65;;;10.00;;
75626;SDS011;67372;49.404;11.034;2023-09-12T02:28:43;20.20;;;11.43;;
75626;SDS011;67372;49.404;11.034;2023-09-12T02:31:11;17.55;;;10.07;;
75626;SDS011;67372;49.404;11.034;2023-09-12T02:33:38;19.33;;;10.73;;
75626;SDS011;67372;49.404;11.034;2023-09-12T02:36:06;16.50;;;10.43;;
75626;SDS011;67372;49.404;11.034;2023-09-12T02:38:32;16.27;;;10.32;;
75626;SDS011;67372;49.404;11.034;2023-09-12T02:40:59;16.38;;;10.48;;
75626;SDS011;67372;49.404;11.034;2023-09-12T02:43:25;17.52;;;10.23;;
75626;SDS011;67372;49.404;11.034;2023-09-12T02:45:52;17.00;;;10.50;;
75626;SDS011;67372;49.404;11.034;2023-09-12T02:48:18;17.30;;;10.65;;
75626;SDS011;67372;49.404;11.034;2023-09-12T02:50:45;16.92;;;10.95;;
75626;SDS011;67372;49.404;11.034;2023-09-12T02:53:11;17.00;;;11.10;;
75626;SDS011;67372;49.404;11.034;2023-09-12T02:55:41;16.40;;;10.38;;
75626;SDS011;67372;49.404;11.034;2023-09-12T02:58:08;18.25;;;10.85;;
75626;SDS011;67372;49.404;11.034;2023-09-12T03:00:37;16.38;;;10.27;;
75626;SDS011;67372;49.404;11.034;2023-09-12T03:03:07;18.42;;;11.50;;
75626;SDS011;67372;49.404;11.034;2023-09-12T03:05:33;18.83;;;10.40;;
75626;SDS011;67372;49.404;11.034;2023-09-12T03:08:00;18.00;;;10.57;;
75626;SDS011;67372;49.404;11.034;2023-09-12T03:10:26;18.15;;;10.23;;
75626;SDS011;67372;49.404;11.034;2023-09-12T03:12:53;17.70;;;11.00;;
75626;SDS011;67372;49.404;11.034;2023-09-12T03:15:19;18.58;;;11.80;;
75626;SDS011;67372;49.404;11.034;2023-09-12T03:17:45;16.20;;;10.52;;
75626;SDS011;67372;49.404;11.034;2023-09-12T03:20:12;16.30;;;10.50;;
75626;SDS011;67372;49.404;11.034;2023-09-12T03:22:38;17.05;;;10.38;;
75626;SDS011;67372;49.404;11.034;2023-09-12T03:25:05;18.15;;;10.27;;
75626;SDS011;67372;49.404;11.034;2023-09-12T03:27:31;16.55;;;11.02;;
75626;SDS011;67372;49.404;11.034;2023-09-12T03:29:58;18.38;;;10.90;;
75626;SDS011;67372;49.404;11.034;2023-09-12T03:32:24;19.67;;;11.10;;
75626;SDS011;67372;49.404;11.034;2023-09-12T03:34:51;18.55;;;10.77;;
75626;SDS011;67372;49.404;11.034;2023-09-12T03:37:17;16.67;;;10.15;;
75626;SDS011;67372;49.404;11.034;2023-09-12T03:39:44;15.15;;;9.77;;
75626;SDS011;67372;49.404;11.034;2023-09-12T03:42:10;16.90;;;10.82;;
75626;SDS011;67372;49.404;11.034;2023-09-12T03:44:36;20.70;;;11.13;;
75626;SDS011;67372;49.404;11.034;2023-09-12T03:47:03;16.98;;;10.35;;
75626;SDS011;67372;49.404;11.034;2023-09-12T03:49:30;16.55;;;11.05;;
75626;SDS011;67372;49.404;11.034;2023-09-12T03:51:57;17.25;;;10.02;;
75626;SDS011;67372;49.404;11.034;2023-09-12T03:54:23;17.33;;;9.77;;
75626;SDS011;67372;49.404;11.034;2023-09-12T03:56:50;17.80;;;10.70;;
75626;SDS011;67372;49.404;11.034;2023-09-12T03:59:16;15.48;;;10.10;;
75626;SDS011;67372;49.404;11.034;2023-09-12T04:01:42;18.45;;;10.25;;
75626;SDS011;67372;49.404;11.034;2023-09-12T04:04:09;15.95;;;10.52;;
75626;SDS011;67372;49.404;11.034;2023-09-12T04:06:36;17.35;;;10.50;;
75626;SDS011;67372;49.404;11.034;2023-09-12T04:09:02;14.93;;;10.07;;
75626;SDS011;67372;49.404;11.034;2023-09-12T04:11:28;18.05;;;10.45;;
75626;SDS011;67372;49.404;11.034;2023-09-12T04:14:11;18.05;;;10.25;;
75626;SDS011;67372;49.404;11.034;2023-09-12T04:16:37;15.93;;;10.30;;
75626;SDS011;67372;49.404;11.034;2023-09-12T04:19:04;17.33;;;11.05;;
75626;SDS011;67372;49.404;11.034;2023-09-12T04:21:30;16.88;;;10.27;;
75626;SDS011;67372;49.404;11.034;2023-09-12T04:23:57;17.15;;;10.35;;
75626;SDS011;67372;49.404;11.034;2023-09-12T04:26:23;16.88;;;10.20;;
75626;SDS011;67372;49.404;11.034;2023-09-12T04:28:50;17.42;;;10.38;;
75626;SDS011;67372;49.404;11.034;2023-09-12T04:31:16;18.50;;;9.95;;
75626;SDS011;67372;49.404;11.034;2023-09-12T04:33:42;19.45;;;10.60;;
75626;SDS011;67372;49.404;11.034;2023-09-12T04:36:09;16.52;;;10.15;;
75626;SDS011;67372;49.404;11.034;2023-09-12T04:38:35;16.38;;;10.25;;
75626;SDS011;67372;49.404;11.034;2023-09-12T04:41:02;17.00;;;10.40;;
75626;SDS011;67372;49.404;11.034;2023-09-12T04:43:29;15.93;;;9.93;;
75626;SDS011;67372;49.404;11.034;2023-09-12T04:45:55;16.98;;;10.55;;
75626;SDS011;67372;49.404;11.034;2023-09-12T04:48:22;19.15;;;10.70;;
75626;SDS011;67372;49.404;11.034;2023-09-12T04:50:48;18.63;;;10.65;;
75626;SDS011;67372;49.404;11.034;2023-09-12T04:53:15;17.85;;;10.00;;
75626;SDS011;67372;49.404;11.034;2023-09-12T04:55:41;16.95;;;10.45;;
75626;SDS011;67372;49.404;11.034;2023-09-12T04:58:08;18.85;;;10.07;;
75626;SDS011;67372;49.404;11.034;2023-09-12T05:00:34;16.65;;;10.70;;
75626;SDS011;67372;49.404;11.034;2023-09-12T05:03:01;16.88;;;10.80;;
75626;SDS011;67372;49.404;11.034;2023-09-12T05:07:54;17.35;;;10.18;;
75626;SDS011;67372;49.404;11.034;2023-09-12T05:10:21;17.98;;;10.45;;
75626;SDS011;67372;49.404;11.034;2023-09-12T05:12:47;21.40;;;11.35;;
75626;SDS011;67372;49.404;11.034;2023-09-12T05:15:13;17.60;;;10.93;;
75626;SDS011;67372;49.404;11.034;2023-09-12T05:17:40;19.00;;;10.65;;
75626;SDS011;67372;49.404;11.034;2023-09-12T05:20:06;18.08;;;10.95;;
75626;SDS011;67372;49.404;11.034;2023-09-12T05:22:33;17.35;;;9.82;;
75626;SDS011;67372;49.404;11.034;2023-09-12T05:25:00;19.80;;;10.73;;
75626;SDS011;67372;49.404;11.034;2023-09-12T05:27:26;18.70;;;10.60;;
75626;SDS011;67372;49.404;11.034;2023-09-12T05:29:52;15.45;;;10.10;;
75626;SDS011;67372;49.404;11.034;2023-09-12T05:32:19;17.73;;;10.57;;
75626;SDS011;67372;49.404;11.034;2023-09-12T05:34:45;16.15;;;10.57;;
75626;SDS011;67372;49.404;11.034;2023-09-12T05:37:12;17.42;;;10.45;;
75626;SDS011;67372;49.404;11.034;2023-09-12T05:39:38;20.20;;;10.95;;
75626;SDS011;67372;49.404;11.034;2023-09-12T05:42:05;19.45;;;10.68;;
75626;SDS011;67372;49.404;11.034;2023-09-12T05:44:31;17.00;;;10.90;;
75626;SDS011;67372;49.404;11.034;2023-09-12T05:46:57;15.88;;;9.80;;
75626;SDS011;67372;49.404;11.034;2023-09-12T05:49:24;20.48;;;10.45;;
75626;SDS011;67372;49.404;11.034;2023-09-12T05:51:50;17.50;;;10.50;;
75626;SDS011;67372;49.404;11.034;2023-09-12T05:54:17;17.95;;;10.20;;
75626;SDS011;67372;49.404;11.034;2023-09-12T05:56:43;18.23;;;10.40;;
75626;SDS011;67372;49.404;11.034;2023-09-12T05:59:09;17.98;;;10.68;;
75626;SDS011;67372;49.404;11.034;2023-09-12T06:01:36;18.63;;;10.50;;
75626;SDS011;67372;49.404;11.034;2023-09-12T06:04:02;17.67;;;10.50;;
75626;SDS011;67372;49.404;11.034;2023-09-12T06:06:29;17.90;;;10.07;;
75626;SDS011;67372;49.404;11.034;2023-09-12T06:08:56;14.68;;;9.60;;
75626;SDS011;67372;49.404;11.034;2023-09-12T06:11:22;16.17;;;10.23;;
75626;SDS011;67372;49.404;11.034;2023-09-12T06:13:48;16.58;;;9.45;;
75626;SDS011;67372;49.404;11.034;2023-09-12T06:16:15;14.90;;;9.65;;
75626;SDS011;67372;49.404;11.034;2023-09-12T06:18:41;17.50;;;10.10;;
75626;SDS011;67372;49.404;11.034;2023-09-12T06:21:08;17.98;;;9.43;;
75626;SDS011;67372;49.404;11.034;2023-09-12T06:23:35;14.95;;;9.70;;
75626;SDS011;67372;49.404;11.034;2023-09-12T06:26:01;16.67;;;10.02;;
75626;SDS011;67372;49.404;11.034;2023-09-12T06:28:28;16.48;;;9.65;;
75626;SDS011;67372;49.404;11.034;2023-09-12T06:30:56;15.60;;;9.15;;
75626;SDS011;67372;49.404;11.034;2023-09-12T06:33:24;17.17;;;9.80;;
75626;SDS011;67372;49.404;11.034;2023-09-12T06:35:52;15.98;;;9.93;;
75626;SDS011;67372;49.404;11.034;2023-09-12T06:38:18;20.02;;;9.85;;
75626;SDS011;67372;49.404;11.034;2023-09-12T06:40:46;15.15;;;8.82;;
75626;SDS011;67372;49.404;11.034;2023-09-12T06:43:12;15.23;;;9.48;;
75626;SDS011;67372;49.404;11.034;2023-09-12T06:45:40;18.50;;;10.40;;
75626;SDS011;67372;49.404;11.034;2023-09-12T06:48:07;15.75;;;11.45;;
75626;SDS011;67372;49.404;11.034;2023-09-12T06:50:34;16.55;;;10.40;;
75626;SDS011;67372;49.404;11.034;2023-09-12T06:53:01;13.95;;;9.05;;
75626;SDS011;67372;49.404;11.034;2023-09-12T06:55:27;16.33;;;10.13;;
75626;SDS011;67372;49.404;11.034;2023-09-12T06:57:54;13.38;;;9.90;;
75626;SDS011;67372;49.404;11.034;2023-09-12T07:00:20;15.05;;;9.25;;
75626;SDS011;67372;49.404;11.034;2023-09-12T07:02:47;20.73;;;10.43;;
75626;SDS011;67372;49.404;11.034;2023-09-12T07:05:13;14.48;;;9.40;;
75626;SDS011;67372;49.404;11.034;2023-09-12T07:07:39;15.95;;;9.98;;
75626;SDS011;67372;49.404;11.034;2023-09-12T07:10:06;15.10;;;10.10;;
75626;SDS011;67372;49.404;11.034;2023-09-12T07:12:49;15.40;;;9.98;;
75626;SDS011;67372;49.404;11.034;2023-09-12T07:15:16;16.42;;;9.05;;
75626;SDS011;67372;49.404;11.034;2023-09-12T07:17:42;17.63;;;9.95;;
75626;SDS011;67372;49.404;11.034;2023-09-12T07:20:09;20.92;;;10.63;;
75626;SDS011;67372;49.404;11.034;2023-09-12T07:22:35;17.15;;;10.30;;
75626;SDS011;67372;49.404;11.034;2023-09-12T07:25:02;17.52;;;10.50;;
75626;SDS011;67372;49.404;11.034;2023-09-12T07:27:28;18.23;;;10.27;;
75626;SDS011;67372;49.404;11.034;2023-09-12T07:29:55;16.73;;;10.45;;
75626;SDS011;67372;49.404;11.034;2023-09-12T07:32:21;16.83;;;10.40;;
75626;SDS011;67372;49.404;11.034;2023-09-12T07:34:48;15.45;;;9.88;;
75626;SDS011;67372;49.404;11.034;2023-09-12T07:37:14;14.90;;;9.57;;
75626;SDS011;67372;49.404;11.034;2023-09-12T07:39:40;20.02;;;10.25;;
75626;SDS011;67372;49.404;11.034;2023-09-12T07:42:07;15.07;;;9.77;;
75626;SDS011;67372;49.404;11.034;2023-09-12T07:44:33;17.48;;;8.90;;
75626;SDS011;67372;49.404;11.034;2023-09-12T07:46:59;12.98;;;8.77;;
75626;SDS011;67372;49.404;11.034;2023-09-12T07:49:27;14.15;;;9.15;;
75626;SDS011;67372;49.404;11.034;2023-09-12T07:51:53;14.70;;;10.43;;
75626;SDS011;67372;49.404;11.034;2023-09-12T07:54:20;15.23;;;9.68;;
75626;SDS011;67372;49.404;11.034;2023-09-12T07:56:46;14.05;;;9.23;;
75626;SDS011;67372;49.404;11.034;2023-09-12T07:59:12;14.55;;;8.70;;
75626;SDS011;67372;49.404;11.034;2023-09-12T08:01:39;13.40;;;8.90;;
75626;SDS011;67372;49.404;11.034;2023-09-12T08:04:05;12.95;;;8.80;;
75626;SDS011;67372;49.404;11.034;2023-09-12T08:06:32;14.23;;;9.65;;
75626;SDS011;67372;49.404;11.034;2023-09-12T08:09:19;12.88;;;8.95;;
75626;SDS011;67372;49.404;11.034;2023-09-12T08:11:45;13.90;;;8.80;;
75626;SDS011;67372;49.404;11.034;2023-09-12T08:14:12;13.55;;;8.55;;
75626;SDS011;67372;49.404;11.034;2023-09-12T08:16:38;13.25;;;8.45;;
75626;SDS011;67372;49.404;11.034;2023-09-12T08:19:04;13.15;;;9.80;;
75626;SDS011;67372;49.404;11.034;2023-09-12T08:21:31;11.10;;;8.20;;
75626;SDS011;67372;49.404;11.034;2023-09-12T08:23:57;14.38;;;9.07;;
75626;SDS011;67372;49.404;11.034;2023-09-12T08:26:24;14.07;;;8.75;;
75626;SDS011;67372;49.404;11.034;2023-09-12T08:28:50;14.75;;;8.65;;
75626;SDS011;67372;49.404;11.034;2023-09-12T08:31:16;12.57;;;8.68;;
75626;SDS011;67372;49.404;11.034;2023-09-12T08:33:43;14.50;;;9.00;;
75626;SDS011;67372;49.404;11.034;2023-09-12T08:36:09;13.48;;;8.65;;
75626;SDS011;67372;49.404;11.034;2023-09-12T08:38:36;12.60;;;8.50;;
75626;SDS011;67372;49.404;11.034;2023-09-12T08:41:02;12.13;;;8.40;;
75626;SDS011;67372;49.404;11.034;2023-09-12T08:43:29;13.13;;;8.38;;
75626;SDS011;67372;49.404;11.034;2023-09-12T08:45:55;12.98;;;7.97;;
75626;SDS011;67372;49.404;11.034;2023-09-12T08:48:22;13.68;;;8.35;;
75626;SDS011;67372;49.404;11.034;2023-09-12T08:50:50;11.63;;;9.13;;
75626;SDS011;67372;49.404;11.034;2023-09-12T08:53:18;15.27;;;8.13;;
75626;SDS011;67372;49.404;11.034;2023-09-12T08:55:45;13.45;;;9.10;;
75626;SDS011;67372;49.404;11.034;2023-09-12T08:58:11;12.57;;;8.68;;
75626;SDS011;67372;49.404;11.034;2023-09-12T09:00:38;13.25;;;9.10;;
75626;SDS011;67372;49.404;11.034;2023-09-12T09:03:04;15.27;;;9.15;;
75626;SDS011;67372;49.404;11.034;2023-09-12T09:05:32;14.02;;;8.52;;
75626;SDS011;67372;49.404;11.034;2023-09-12T09:08:01;16.60;;;9.30;;
75626;SDS011;67372;49.404;11.034;2023-09-12T09:10:29;14.50;;;9.18;;
75626;SDS011;67372;49.404;11.034;2023-09-12T09:12:59;14.57;;;9.07;;
75626;SDS011;67372;49.404;11.034;2023-09-12T09:15:26;14.27;;;8.65;;
75626;SDS011;67372;49.404;11.034;2023-09-12T09:17:55;12.65;;;9.45;;
75626;SDS011;67372;49.404;11.034;2023-09-12T09:20:30;11.23;;;8.35;;
75626;SDS011;67372;49.404;11.034;2023-09-12T09:25:28;11.73;;;9.13;;
75626;SDS011;67372;49.404;11.034;2023-09-12T09:27:54;14.27;;;9.13;;
75626;SDS011;67372;49.404;11.034;2023-09-12T09:30:40;12.65;;;9.32;;
75626;SDS011;67372;49.404;11.034;2023-09-12T09:33:24;13.18;;;9.60;;
75626;SDS011;67372;49.404;11.034;2023-09-12T09:35:51;12.98;;;8.90;;
75626;SDS011;67372;49.404;11.034;2023-09-12T09:38:28;12.65;;;9.23;;
75626;SDS011;67372;49.404;11.034;2023-09-12T09:40:55;15.82;;;9.52;;
75626;SDS011;67372;49.404;11.034;2023-09-12T09:43:22;13.35;;;9.82;;
75626;SDS011;67372;49.404;11.034;2023-09-12T09:45:49;11.05;;;8.40;;
75626;SDS011;67372;49.404;11.034;2023-09-12T09:48:19;11.18;;;8.50;;
75626;SDS011;67372;49.404;11.034;2023-09-12T09:50:47;12.57;;;9.60;;
75626;SDS011;67372;49.404;11.034;2023-09-12T09:53:14;12.13;;;8.73;;
75626;SDS011;67372;49.404;11.034;2023-09-12T09:55:40;12.52;;;8.75;;
75626;SDS011;67372;49.404;11.034;2023-09-12T09:58:07;11.77;;;9.05;;
75626;SDS011;67372;49.404;11.034;2023-09-12T10:00:34;12.63;;;9.27;;
75626;SDS011;67372;49.404;11.034;2023-09-12T10:03:05;13.88;;;9.38;;
75626;SDS011;67372;49.404;11.034;2023-09-12T10:05:33;12.18;;;9.30;;
75626;SDS011;67372;49.404;11.034;2023-09-12T10:08:03;13.95;;;10.10;;
75626;SDS011;67372;49.404;11.034;2023-09-12T10:10:33;13.30;;;10.18;;
75626;SDS011;67372;49.404;11.034;2023-09-12T10:15:29;10.60;;;8.60;;
75626;SDS011;67372;49.404;11.034;2023-09-12T10:17:57;11.60;;;9.32;;
75626;SDS011;67372;49.404;11.034;2023-09-12T10:20:33;13.07;;;9.55;;
75626;SDS011;67372;49.404;11.034;2023-09-12T10:23:06;13.80;;;9.70;;
75626;SDS011;67372;49.404;11.034;2023-09-12T10:25:37;9.82;;;8.63;;
75626;SDS011;67372;49.404;11.034;2023-09-12T10:30:32;9.30;;;8.30;;
75626;SDS011;67372;49.404;11.034;2023-09-12T10:33:00;11.98;;;9.20;;
75626;SDS011;67372;49.404;11.034;2023-09-12T10:35:29;12.98;;;8.93;;
75626;SDS011;67372;49.404;11.034;2023-09-12T10:37:57;12.70;;;8.93;;
75626;SDS011;67372;49.404;11.034;2023-09-12T10:40:26;10.38;;;8.95;;
75626;SDS011;67372;49.404;11.034;2023-09-12T10:42:55;11.80;;;9.15;;
75626;SDS011;67372;49.404;11.034;2023-09-12T10:45:22;13.25;;;8.77;;
75626;SDS011;67372;49.404;11.034;2023-09-12T10:47:48;13.50;;;8.82;;
75626;SDS011;67372;49.404;11.034;2023-09-12T10:50:15;12.57;;;9.07;;
75626;SDS011;67372;49.404;11.034;2023-09-12T10:52:44;12.43;;;8.75;;
75626;SDS011;67372;49.404;11.034;2023-09-12T10:55:15;13.02;;;8.65;;
75626;SDS011;67372;49.404;11.034;2023-09-12T10:58:04;10.48;;;8.70;;
75626;SDS011;67372;49.404;11.034;2023-09-12T11:00:30;11.75;;;8.55;;
75626;SDS011;67372;49.404;11.034;2023-09-12T11:02:57;11.43;;;9.13;;
75626;SDS011;67372;49.404;11.034;2023-09-12T11:07:56;10.88;;;8.73;;
75626;SDS011;67372;49.404;11.034;2023-09-12T11:10:24;10.68;;;8.68;;
75626;SDS011;67372;49.404;11.034;2023-09-12T11:12:52;10.05;;;7.70;;
75626;SDS011;67372;49.404;11.034;2023-09-12T11:15:22;13.43;;;9.40;;
75626;SDS011;67372;49.404;11.034;2023-09-12T11:17:59;9.70;;;7.90;;
75626;SDS011;67372;49.404;11.034;2023-09-12T11:20:47;9.98;;;8.38;;
75626;SDS011;67372;49.404;11.034;2023-09-12T11:23:26;9.98;;;8.38;;
75626;SDS011;67372;49.404;11.034;2023-09-12T11:26:02;11.48;;;8.15;;
75626;SDS011;67372;49.404;11.034;2023-09-12T11:28:32;10.65;;;8.15;;
75626;SDS011;67372;49.404;11.034;2023-09-12T11:30:59;12.38;;;8.00;;
75626;SDS011;67372;49.404;11.034;2023-09-12T11:33:25;13.02;;;7.88;;
75626;SDS011;67372;49.404;11.034;2023-09-12T11:35:53;10.93;;;8.00;;
75626;SDS011;67372;49.404;11.034;2023-09-12T11:38:27;10.00;;;8.20;;
75626;SDS011;67372;49.404;11.034;2023-09-12T11:40:54;9.50;;;8.05;;
75626;SDS011;67372;49.404;11.034;2023-09-12T11:43:22;9.40;;;7.72;;
75626;SDS011;67372;49.404;11.034;2023-09-12T11:45:50;11.20;;;8.18;;
75626;SDS011;67372;49.404;11.034;2023-09-12T11:48:18;9.02;;;8.13;;
75626;SDS011;67372;49.404;11.034;2023-09-12T11:50:52;10.32;;;7.95;;
75626;SDS011;67372;49.404;11.034;2023-09-12T11:53:23;8.38;;;7.38;;
75626;SDS011;67372;49.404;11.034;2023-09-12T11:55:53;7.60;;;6.80;;
75626;SDS011;67372;49.404;11.034;2023-09-12T11:58:21;10.77;;;7.15;;
75626;SDS011;67372;49.404;11.034;2023-09-12T12:00:48;8.98;;;7.78;;
75626;SDS011;67372;49.404;11.034;2023-09-12T12:03:17;10.00;;;6.97;;
75626;SDS011;67372;49.404;11.034;2023-09-12T12:05:44;9.05;;;7.05;;
75626;SDS011;67372;49.404;11.034;2023-09-12T12:08:12;9.23;;;7.57;;
75626;SDS011;67372;49.404;11.034;2023-09-12T12:10:56;9.13;;;7.15;;
75626;SDS011;67372;49.404;11.034;2023-09-12T12:13:23;8.00;;;7.00;;
75626;SDS011;67372;49.404;11.034;2023-09-12T12:15:50;8.70;;;6.93;;
75626;SDS011;67372;49.404;11.034;2023-09-12T12:18:16;8.55;;;7.53;;
75626;SDS011;67372;49.404;11.034;2023-09-12T12:20:43;9.23;;;6.90;;
75626;SDS011;67372;49.404;11.034;2023-09-12T12:25:36;8.88;;;6.68;;
75626;SDS011;67372;49.404;11.034;2023-09-12T12:28:03;8.70;;;6.82;;
75626;SDS011;67372;49.404;11.034;2023-09-12T12:30:31;9.10;;;7.15;;
75626;SDS011;67372;49.404;11.034;2023-09-12T12:33:06;8.20;;;6.70;;
75626;SDS011;67372;49.404;11.034;2023-09-12T12:36:00;10.07;;;7.20;;
75626;SDS011;67372;49.404;11.034;2023-09-12T12:38:30;8.73;;;7.65;;
75626;SDS011;67372;49.404;11.034;2023-09-12T12:40:58;10.98;;;7.78;;
75626;SDS011;67372;49.404;11.034;2023-09-12T12:45:52;9.38;;;6.40;;
75626;SDS011;67372;49.404;11.034;2023-09-12T12:48:28;10.20;;;7.65;;
75626;SDS011;67372;49.404;11.034;2023-09-12T12:50:59;8.48;;;7.38;;
75626;SDS011;67372;49.404;11.034;2023-09-12T12:53:38;9.18;;;7.35;;
75626;SDS011;67372;49.404;11.034;2023-09-12T12:56:11;12.70;;;7.25;;
75626;SDS011;67372;49.404;11.034;2023-09-12T12:58:39;10.50;;;7.20;;
75626;SDS011;67372;49.404;11.034;2023-09-12T13:01:11;10.73;;;7.65;;
75626;SDS011;67372;49.404;11.034;2023-09-12T13:03:37;8.32;;;7.53;;
75626;SDS011;67372;49.404;11.034;2023-09-12T13:06:04;12.45;;;8.27;;
75626;SDS011;67372;49.404;11.034;2023-09-12T13:08:30;10.85;;;7.60;;
75626;SDS011;67372;49.404;11.034;2023-09-12T13:13:23;11.60;;;7.97;;
75626;SDS011;67372;49.404;11.034;2023-09-12T13:15:50;9.95;;;7.28;;
75626;SDS011;67372;49.404;11.034;2023-09-12T13:20:42;11.75;;;7.65;;
75626;SDS011;67372;49.404;11.034;2023-09-12T13:23:09;9.13;;;8.00;;
75626;SDS011;67372;49.404;11.034;2023-09-12T13:28:02;8.73;;;7.75;;
75626;SDS011;67372;49.404;11.034;2023-09-12T13:30:28;11.40;;;8.02;;
75626;SDS011;67372;49.404;11.034;2023-09-12T13:32:55;9.23;;;7.10;;
75626;SDS011;67372;49.404;11.034;2023-09-12T13:35:21;11.25;;;7.53;;
75626;SDS011;67372;49.404;11.034;2023-09-12T13:37:48;11.05;;;7.80;;
75626;SDS011;67372;49.404;11.034;2023-09-12T13:40:14;11.07;;;7.45;;
75626;SDS011;67372;49.404;11.034;2023-09-12T13:42:41;9.00;;;7.30;;
75626;SDS011;67372;49.404;11.034;2023-09-12T13:45:09;9.73;;;7.80;;
75626;SDS011;67372;49.404;11.034;2023-09-12T13:47:36;10.02;;;7.57;;
75626;SDS011;67372;49.404;11.034;2023-09-12T13:50:02;10.52;;;7.70;;
75626;SDS011;67372;49.404;11.034;2023-09-12T13:54:55;8.75;;;6.80;;
75626;SDS011;67372;49.404;11.034;2023-09-12T13:57:24;10.65;;;7.65;;
75626;SDS011;67372;49.404;11.034;2023-09-12T13:59:51;11.32;;;7.03;;
75626;SDS011;67372;49.404;11.034;2023-09-12T14:02:17;9.77;;;7.22;;
75626;SDS011;67372;49.404;11.034;2023-09-12T14:04:44;8.55;;;7.30;;
75626;SDS011;67372;49.404;11.034;2023-09-12T14:07:12;11.38;;;7.80;;
75626;SDS011;67372;49.404;11.034;2023-09-12T14:09:39;10.23;;;7.35;;
75626;SDS011;67372;49.404;11.034;2023-09-12T14:12:06;10.70;;;6.97;;
75626;SDS011;67372;49.404;11.034;2023-09-12T14:14:44;9.15;;;7.18;;
75626;SDS011;67372;49.404;11.034;2023-09-12T14:17:23;8.90;;;7.20;;
75626;SDS011;67372;49.404;11.034;2023-09-12T14:22:16;10.75;;;7.68;;
75626;SDS011;67372;49.404;11.034;2023-09-12T14:24:44;8.90;;;7.00;;
75626;SDS011;67372;49.404;11.034;2023-09-12T14:27:11;8.45;;;6.75;;
75626;SDS011;67372;49.404;11.034;2023-09-12T14:29:51;10.48;;;6.78;;
75626;SDS011;67372;49.404;11.034;2023-09-12T14:34:44;8.38;;;6.72;;
75626;SDS011;67372;49.404;11.034;2023-09-12T14:37:11;9.00;;;7.22;;
75626;SDS011;67372;49.404;11.034;2023-09-12T14:39:37;11.52;;;7.60;;
75626;SDS011;67372;49.404;11.034;2023-09-12T14:42:04;8.88;;;7.32;;
75626;SDS011;67372;49.404;11.034;2023-09-12T14:44:31;8.73;;;6.75;;
75626;SDS011;67372;49.404;11.034;2023-09-12T14:46:57;8.23;;;6.80;;
75626;SDS011;67372;49.404;11.034;2023-09-12T14:51:50;9.65;;;7.13;;
75626;SDS011;67372;49.404;11.034;2023-09-12T14:54:16;9.10;;;7.35;;
75626;SDS011;67372;49.404;11.034;2023-09-12T14:56:43;9.00;;;7.00;;
75626;SDS011;67372;49.404;11.034;2023-09-12T14:59:09;9.13;;;7.07;;
75626;SDS011;67372;49.404;11.034;2023-09-12T15:01:36;8.15;;;7.10;;
75626;SDS011;67372;49.404;11.034;2023-09-12T15:04:03;10.02;;;7.25;;